Nearby METAR Reports

 

EDNY - Friedrichshafen, Germany
Distance from station: ONO 32km
aktuell: 23/07/2024 21:20
geschlossene Wolkendecke
geschlossene Wolkendecke
 Wind von WSW
Wind: WSW 19 km/h
Temperatur: 22°C
Taupunkt: 17°C
Luftfeuchte: 73%
Luftdruck: 1019 hPa
Clouds: geschlossene Wolkendecke
Visibility: 10 km
Cloud details: Few Clouds 427 m
geschlossene Wolkendecke 2469 m
2024/07/23 19:20 EDNY 231920Z AUTO 25010KT 9999 // FEW014/// OVC081/// 22/17 Q1019
LSZR - Rheineck/Altenrh, Switzerland
Distance from station: OSO 37km
aktuell: 23/07/2024 21:20
stark bewölkt
stark bewölkt
 Wind von W
Wind: W 11 km/h
Temperatur: 23°C
Taupunkt: 16°C
Luftfeuchte: 65%
Luftdruck: 1020 hPa
Clouds: stark bewölkt
Visibility: 10 km
Cloud details: Few Clouds 1981 m
stark bewölkt 2591 m
2024/07/23 19:20 LSZR 231920Z AUTO 26006KT 230V290 9999 FEW065 BKN085 23/16 Q1020
LSMD - Dubendorf, Switzerland
Distance from station: SW 40km
aktuell: 23/07/2024 21:20
stark bewölkt
stark bewölkt
 Wind von NW
Wind: NW 15 km/h
Temperatur: 22°C
Taupunkt: 16°C
Luftfeuchte: 69%
Luftdruck: 1020 hPa
Clouds: stark bewölkt
Visibility: 10 km
Cloud details: teilweise bewölkt 2012 m
stark bewölkt 2682 m
2024/07/23 19:20 LSMD 231920Z AUTO 31008KT 9999NDV SCT066 BKN088 22/16 Q1020 RMK
 
LSZH - Zurich-Kloten (a, Switzerland
Distance from station: WSW 44km
aktuell: 23/07/2024 21:50
stark bewölkt
stark bewölkt
 Wind von W
Wind: W 11 km/h
Temperatur: 22°C
Taupunkt: 16°C
Luftfeuchte: 69%
Luftdruck: 1021 hPa
Clouds: stark bewölkt
Visibility: 10 km
Cloud details: Few Clouds 1524 m
teilweise bewölkt 1829 m
stark bewölkt 2134 m
2024/07/23 19:50 LSZH 231950Z 28006KT 9999 FEW050 SCT060 BKN070 22/16 Q1021 NOSIG
LSME - Emmen, Switzerland
Distance from station: SW 82km
aktuell: 23/07/2024 21:20
stark bewölkt
stark bewölkt
 Wind von calm
Wind: Windstill
Temperatur: 23°C
Taupunkt: 17°C
Luftfeuchte: 69%
Luftdruck: 1020 hPa
Clouds: stark bewölkt
Visibility: 10 km
Cloud details: teilweise bewölkt 1372 m
stark bewölkt 1615 m
2024/07/23 19:20 LSME 231920Z AUTO 00000KT 9999NDV SCT045 BKN053 23/17 Q1020 RMK
LSZC - Buochs, Switzerland
Distance from station: SW 89km
aktuell: 23/07/2024 21:50
teilweise bewölkt
teilweise bewölkt
 Wind von varies
Wind: varies 6 km/h
Clouds: teilweise bewölkt
Visibility: 10 km
Cloud details: Few Clouds 1097 m
teilweise bewölkt 1402 m
2024/07/23 19:50 LSZC 231950Z AUTO VRB03KT 9999 FEW036 SCT046 BKN05
 
ETHL - Laupheim (ger-Ar, Germany
Distance from station: NO 92km
aktuell: 23/07/2024 21:20
stark bewölkt
stark bewölkt
 Wind von N
Wind: N 2 km/h
Temperatur: 21°C
Taupunkt: 15°C
Luftfeuchte: 69%
Luftdruck: 1019 hPa
Clouds: stark bewölkt
Visibility: 10 km
Cloud details: Few Clouds 1219 m
teilweise bewölkt 1524 m
stark bewölkt 8839 m
2024/07/23 19:20 ETHL 231920Z 36001KT 9999 FEW040CB SCT050 BKN290 21/15 Q1019 BLU+BLU TEMPO YLO
EDJA - Memmingen Allgau, Germany
Distance from station: ONO 95km
aktuell: 23/07/2024 21:20
stark bewölkt
stark bewölkt
 Wind von NW
Wind: NW 9 km/h
Temperatur: 21°C
Taupunkt: 16°C
Luftfeuchte: 73%
Luftdruck: 1020 hPa
Clouds: stark bewölkt
Visibility: 10 km
Cloud details: Few Clouds 1311 m
stark bewölkt 1524 m
stark bewölkt 1798 m
2024/07/23 19:20 EDJA 231920Z 31005KT 250V340 9999 FEW043 BKN050 BKN059 21/16 Q1020
LSMA - Alpnach, Switzerland
Distance from station: SW 95km
aktuell: 23/07/2024 21:20
stark bewölkt
stark bewölkt
 Wind von O
Wind: O 15 km/h
Temperatur: 24°C
Taupunkt: 17°C
Luftfeuchte: 65%
Luftdruck: 1020 hPa
Clouds: stark bewölkt
Visibility: 10 km
Cloud details: teilweise bewölkt 1554 m
stark bewölkt 2164 m
stark bewölkt 3353 m
2024/07/23 19:20 LSMA 231920Z AUTO 09008KT 050V110 9999NDV SCT051 BKN071 BKN110 24/17 Q1020 RMK